Time;durP1;ratioP1;P1;durP2;ratioP2;P2;SDS_P1;SDS_P2;PMS_P1;PMS_P2;Temp;Humidity;BMP_temperature;BMP_pressure;BME280_temperature;BME280_humidity;BME280_pressure;Samples;Min_cycle;Max_cycle;Signal;HPM_P1;HPM_P2
2022/04/29 00:02:16;;;;;;;23.45;2.03;;;;;;;20.90;46.63;100644.66;7312194;19;128952;-36
2022/04/29 00:04:42;;;;;;;19.30;1.88;;;;;;;21.14;46.71;100648.13;7314053;19;129538;-36
2022/04/29 00:07:09;;;;;;;13.77;1.33;;;;;;;21.08;48.26;100642.53;7313606;19;129185;-35
2022/04/29 00:09:34;;;;;;;22.45;2.20;;;;;;;21.10;49.02;100644.09;7312811;19;129102;-42
2022/04/29 00:12:02;;;;;;;22.70;2.38;;;;;;;21.04;48.73;100620.97;7311863;19;129954;-35
2022/04/29 00:14:28;;;;;;;22.73;2.28;;;;;;;21.16;48.71;100641.03;7314006;19;129268;-34
2022/04/29 00:16:53;;;;;;;27.88;2.70;;;;;;;21.18;49.20;100641.75;7313027;19;130354;-39
2022/04/29 00:19:18;;;;;;;25.95;2.38;;;;;;;21.22;49.91;100637.94;7309222;19;154903;-39
2022/04/29 00:21:45;;;;;;;16.85;1.77;;;;;;;21.22;49.98;100640.56;7309827;19;154887;-37
2022/04/29 00:24:11;;;;;;;15.50;1.63;;;;;;;21.24;49.95;100638.69;7313629;19;131066;-40
2022/04/29 00:26:37;;;;;;;21.02;2.10;;;;;;;21.22;50.10;100632.72;7311811;19;129695;-34
2022/04/29 00:29:03;;;;;;;20.03;2.10;;;;;;;21.12;50.06;100623.06;7312558;19;129494;-38
2022/04/29 00:31:28;;;;;;;30.50;2.90;;;;;;;21.24;49.95;100636.06;7310677;19;131076;-36
2022/04/29 00:33:54;;;;;;;28.35;2.75;;;;;;;21.20;49.02;100641.63;7312575;19;130295;-39
2022/04/29 00:36:19;;;;;;;23.02;2.25;;;;;;;20.79;47.52;100631.53;7311237;19;129328;-35
2022/04/29 00:38:44;;;;;;;18.23;1.77;;;;;;;20.74;47.26;100637.06;7311460;19;129443;-39
2022/04/29 00:41:10;;;;;;;15.88;1.58;;;;;;;21.07;49.65;100639.09;7309611;19;155009;-41
2022/04/29 00:43:35;;;;;;;14.07;1.65;;;;;;;20.98;48.36;100629.28;7309523;19;158497;-40
2022/04/29 00:46:00;;;;;;;15.50;1.55;;;;;;;20.80;47.85;100630.56;7309848;19;151470;-39
2022/04/29 00:48:25;;;;;;;29.27;2.88;;;;;;;20.79;47.69;100628.06;7310124;19;154416;-40
2022/04/29 00:50:51;;;;;;;25.08;2.65;;;;;;;20.81;47.09;100624.38;7309328;19;153997;-34
2022/04/29 00:53:18;;;;;;;18.63;1.92;;;;;;;20.74;46.55;100604.88;7307378;19;159599;-39
2022/04/29 00:55:44;;;;;;;15.88;1.50;;;;;;;20.88;46.57;100624.78;7312559;19;129239;-39
2022/04/29 00:58:32;;;;;;;16.10;2.00;;;;;;;20.85;46.28;100623.25;7311098;19;129403;-43
2022/04/29 01:01:00;;;;;;;31.58;3.17;;;;;;;20.86;46.26;100618.84;7310992;19;129733;-45
2022/04/29 01:03:27;;;;;;;30.75;3.00;;;;;;;20.87;45.99;100621.34;7308550;19;129613;-45
2022/04/29 01:05:53;;;;;;;23.40;2.38;;;;;;;20.97;45.86;100617.16;7311668;19;129276;-36
2022/04/29 01:08:18;;;;;;;25.95;2.50;;;;;;;20.90;46.55;100610.66;7310292;19;154006;-38
2022/04/29 01:10:46;;;;;;;24.30;2.30;;;;;;;21.01;45.77;100615.97;7311286;19;129686;-44
2022/04/29 01:13:11;;;;;;;15.38;1.45;;;;;;;20.97;46.10;100609.31;7309477;19;129603;-45
2022/04/29 01:15:37;;;;;;;17.40;1.60;;;;;;;21.12;47.05;100610.78;7310412;19;130806;-39
2022/04/29 01:18:09;;;;;;;14.65;1.45;;;;;;;21.12;48.54;100604.75;7311600;19;128940;-43
2022/04/29 01:20:35;;;;;;;22.10;2.20;;;;;;;21.14;48.82;100605.47;7310308;19;129073;-43
2022/04/29 01:23:08;;;;;;;11.43;1.45;;;;;;;21.18;48.97;100614.75;7307033;19;129145;-42
2022/04/29 01:25:33;;;;;;;26.92;2.63;;;;;;;21.18;49.68;100605.13;7310674;19;129515;-39
2022/04/29 01:27:59;;;;;;;25.92;2.58;;;;;;;21.21;49.57;100607.53;7310763;19;128959;-39
2022/04/29 01:30:24;;;;;;;19.90;2.17;;;;;;;21.24;49.85;100606.44;7311223;19;129020;-36
2022/04/29 01:32:52;;;;;;;21.15;2.15;;;;;;;21.24;50.02;100607.28;7308240;19;130231;-41
2022/04/29 01:35:17;;;;;;;29.45;3.13;;;;;;;21.23;48.80;100608.25;7308637;19;129151;-41
2022/04/29 01:37:44;;;;;;;26.17;2.78;;;;;;;21.24;49.85;100604.69;7310832;19;129696;-39
2022/04/29 01:40:10;;;;;;;7.80;1.17;;;;;;;21.25;50.03;100601.13;7307343;19;129400;-40
2022/04/29 01:42:36;;;;;;;18.90;1.90;;;;;;;21.29;50.12;100607.78;7304960;19;129511;-41
2022/04/29 01:45:03;;;;;;;17.53;1.77;;;;;;;21.04;47.89;100599.25;7308921;19;129779;-42
2022/04/29 01:47:28;;;;;;;28.40;2.70;;;;;;;20.88;47.15;100596.88;7309083;19;128918;-36
2022/04/29 01:49:53;;;;;;;25.87;2.53;;;;;;;20.85;46.75;100591.88;7309047;19;154828;-38
2022/04/29 01:52:18;;;;;;;30.20;3.07;;;;;;;20.85;47.02;100591.88;7305416;19;158519;-35
2022/04/29 01:54:43;;;;;;;22.63;2.07;;;;;;;20.84;46.79;100598.03;7309135;19;158787;-39
2022/04/29 01:57:09;;;;;;;22.37;2.07;;;;;;;20.85;46.11;100593.66;7309211;19;154913;-40
2022/04/29 01:59:38;;;;;;;19.13;1.88;;;;;;;20.84;46.63;100594.59;7308197;19;128956;-42
2022/04/29 02:02:05;;;;;;;25.50;2.50;;;;;;;20.87;46.48;100595.22;7308797;19;131143;-40
2022/04/29 02:04:31;;;;;;;20.55;2.15;;;;;;;20.80;47.06;100578.31;7310003;19;129689;-40
2022/04/29 02:06:56;;;;;;;30.40;3.25;;;;;;;20.92;45.94;100595.72;7308165;19;129101;-35
2022/04/29 02:09:21;;;;;;;44.17;4.47;;;;;;;20.89;46.05;100598.53;7307139;19;154071;-42
2022/04/29 02:12:05;;;;;;;24.05;2.50;;;;;;;21.07;48.08;100597.25;7306261;19;158795;-40
2022/04/29 02:14:35;;;;;;;20.67;2.03;;;;;;;21.09;48.90;100594.53;7309267;19;129438;-44
2022/04/29 02:17:04;;;;;;;28.80;2.65;;;;;;;21.15;49.64;100594.91;7309326;19;129123;-43
2022/04/29 02:19:29;;;;;;;25.92;2.67;;;;;;;21.18;49.73;100589.44;7307355;19;129081;-45
2022/04/29 02:21:56;;;;;;;36.40;3.90;;;;;;;21.21;49.92;100591.84;7313165;19;130940;-43
2022/04/29 02:24:21;;;;;;;14.17;1.60;;;;;;;21.22;49.20;100595.28;7316384;19;130911;-42
2022/04/29 02:26:46;;;;;;;20.30;2.08;;;;;;;21.23;49.83;100589.94;7315085;19;128881;-42
2022/04/29 02:29:12;;;;;;;24.05;2.25;;;;;;;21.24;49.63;100594.22;7315605;19;128982;-38
2022/04/29 02:31:38;;;;;;;20.70;1.83;;;;;;;21.27;49.80;100583.53;7313621;19;158326;-35
2022/04/29 02:34:03;;;;;;;17.80;1.77;;;;;;;21.26;49.90;100581.88;7315667;19;131293;-34
2022/04/29 02:36:29;;;;;;;20.10;2.17;;;;;;;21.26;50.24;100587.09;7315552;19;128858;-41
2022/04/29 02:38:54;;;;;;;23.27;2.38;;;;;;;21.25;50.48;100582.81;7315195;19;129643;-35
2022/04/29 02:41:19;;;;;;;19.30;2.00;;;;;;;21.04;48.15;100576.53;7313550;19;158543;-36
2022/04/29 02:43:45;;;;;;;19.42;1.98;;;;;;;20.83;47.39;100578.06;7314991;19;129245;-38
2022/04/29 02:46:10;;;;;;;16.13;1.65;;;;;;;20.86;46.67;100582.25;7314558;19;155368;-36
2022/04/29 02:48:35;;;;;;;18.17;1.90;;;;;;;20.94;47.53;100591.19;7314962;19;137113;-38
2022/04/29 02:51:02;;;;;;;17.35;1.63;;;;;;;20.83;46.27;100580.69;7314380;19;129554;-37
2022/04/29 02:53:28;;;;;;;20.30;2.03;;;;;;;20.90;45.96;100581.91;7312943;19;130888;-35
2022/04/29 02:55:53;;;;;;;15.18;1.88;;;;;;;20.89;46.13;100572.38;7315644;19;130079;-42
2022/04/29 02:58:18;;;;;;;24.60;2.40;;;;;;;20.87;46.06;100573.47;7314027;19;153638;-37
2022/04/29 03:00:44;;;;;;;35.60;3.63;;;;;;;20.91;46.96;100575.72;7310326;19;158522;-40
2022/04/29 03:03:09;;;;;;;25.63;2.63;;;;;;;20.95;46.30;100578.97;7311993;19;158638;-42
2022/04/29 03:05:34;;;;;;;21.33;2.37;;;;;;;20.88;45.87;100575.97;7314036;19;154607;-39
2022/04/29 03:07:59;;;;;;;16.05;1.63;;;;;;;21.11;47.97;100576.91;7312817;19;154372;-43
2022/04/29 03:10:25;;;;;;;21.25;2.17;;;;;;;21.14;49.01;100582.75;7315181;19;129130;-32
2022/04/29 03:12:51;;;;;;;23.20;2.43;;;;;;;21.17;49.40;100585.16;7313146;19;129131;-37
2022/04/29 03:15:16;;;;;;;30.13;3.13;;;;;;;21.22;49.92;100580.41;7314893;19;129156;-33
2022/04/29 03:20:26;;;;;;;18.65;1.98;;;;;;;21.23;49.89;100582.09;7313037;19;129316;-38
2022/04/29 03:22:52;;;;;;;20.00;2.28;;;;;;;21.27;50.13;100588.75;7311860;19;158524;-33
2022/04/29 03:25:17;;;;;;;21.27;2.35;;;;;;;21.19;49.63;100572.81;7315388;19;129179;-36
2022/04/29 03:27:42;;;;;;;13.95;1.50;;;;;;;21.24;50.47;100583.75;7315552;19;129026;-41
2022/04/29 03:30:09;;;;;;;21.85;2.20;;;;;;;21.17;49.96;100566.84;7314457;19;158484;-37
2022/04/29 03:32:34;;;;;;;17.83;1.90;;;;;;;21.24;49.80;100589.00;7309957;19;129276;-40
2022/04/29 03:34:59;;;;;;;16.05;1.55;;;;;;;21.19;49.98;100570.19;7313814;19;153533;-36
2022/04/29 03:37:24;;;;;;;14.30;1.90;;;;;;;21.17;48.13;100582.53;7311483;19;154183;-43
2022/04/29 03:39:49;;;;;;;36.50;3.67;;;;;;;20.85;47.66;100586.66;7310422;19;159361;-44
2022/04/29 03:42:15;;;;;;;20.42;2.05;;;;;;;20.79;46.92;100573.19;7310659;19;158562;-39
2022/04/29 03:44:40;;;;;;;18.70;1.85;;;;;;;20.85;47.00;100583.19;7311783;19;154521;-38
2022/04/29 03:47:05;;;;;;;19.27;1.83;;;;;;;20.84;46.84;100586.75;7311706;19;154490;-43
2022/04/29 03:49:37;;;;;;;22.88;2.47;;;;;;;20.83;46.78;100587.69;7311882;19;158758;-40
2022/04/29 03:52:03;;;;;;;17.55;1.88;;;;;;;20.89;46.29;100588.06;7311122;19;129865;-40
2022/04/29 03:54:28;;;;;;;25.67;2.47;;;;;;;20.87;45.97;100579.53;7314421;19;129124;-40
2022/04/29 03:56:53;;;;;;;28.63;2.78;;;;;;;20.99;46.19;100589.09;7313243;19;129814;-41
2022/04/29 03:59:19;;;;;;;42.60;4.30;;;;;;;20.92;45.74;100593.09;7312053;19;130499;-41
2022/04/29 04:01:45;;;;;;;34.83;3.05;;;;;;;21.05;48.02;100587.84;7310164;19;141241;-42
2022/04/29 04:04:10;;;;;;;6.23;1.00;;;;;;;21.10;48.68;100586.56;7313864;19;129314;-35
2022/04/29 04:06:50;;;;;;;25.23;2.35;;;;;;;21.03;49.58;100574.88;7309430;19;143865;-37
2022/04/29 04:09:18;;;;;;;23.10;2.15;;;;;;;21.13;49.90;100580.25;7312465;19;130050;-38
2022/04/29 04:11:43;;;;;;;15.15;1.83;;;;;;;21.18;49.50;100589.44;7310741;19;129186;-40
2022/04/29 04:14:09;;;;;;;18.15;1.95;;;;;;;21.22;49.93;100590.88;7310067;19;154611;-39
2022/04/29 04:16:36;;;;;;;15.85;1.73;;;;;;;21.22;50.00;100593.50;7312293;19;129096;-32
2022/04/29 04:19:03;;;;;;;20.40;1.92;;;;;;;21.24;49.89;100586.38;7312059;19;130977;-39
2022/04/29 04:21:28;;;;;;;21.20;2.22;;;;;;;21.27;50.54;100594.00;7310871;19;130112;-38
2022/04/29 04:23:53;;;;;;;27.95;2.78;;;;;;;21.24;50.64;100596.84;7311810;19;154511;-43
2022/04/29 04:26:19;;;;;;;27.20;2.95;;;;;;;21.25;50.28;100595.91;7313039;19;129453;-42
2022/04/29 04:28:44;;;;;;;27.48;3.08;;;;;;;21.24;49.96;100596.84;7311482;19;130374;-42
2022/04/29 04:31:10;;;;;;;25.55;2.70;;;;;;;20.94;47.55;100596.41;7310082;19;158612;-39
2022/04/29 04:33:35;;;;;;;31.23;3.10;;;;;;;20.77;46.93;100588.97;7308712;19;129860;-34
2022/04/29 04:36:01;;;;;;;30.83;2.75;;;;;;;20.73;46.98;100582.28;7307607;19;153083;-38
2022/04/29 04:38:26;;;;;;;26.05;2.55;;;;;;;20.84;46.62;100594.59;7311209;19;130430;-43
2022/04/29 04:40:53;;;;;;;32.65;3.38;;;;;;;20.82;46.22;100599.94;7307897;19;130399;-42
2022/04/29 04:43:18;;;;;;;39.72;3.95;;;;;;;20.81;46.11;100590.41;7308036;19;130679;-41
2022/04/29 04:45:46;;;;;;;8.13;1.33;;;;;;;20.82;46.57;100602.56;7310283;19;130773;-42
2022/04/29 04:48:11;;;;;;;24.48;2.40;;;;;;;20.84;46.51;100605.88;7311196;19;130651;-38
2022/04/29 04:50:36;;;;;;;32.20;3.42;;;;;;;20.85;46.57;100612.78;7309445;19;158509;-40
2022/04/29 04:53:02;;;;;;;18.85;2.20;;;;;;;20.89;46.23;100611.59;7306370;19;154467;-40
2022/04/29 04:55:27;;;;;;;38.92;4.15;;;;;;;20.99;46.26;100615.25;7310761;19;129255;-42
2022/04/29 04:57:52;;;;;;;30.40;3.20;;;;;;;21.16;46.68;100620.09;7310836;19;130750;-33
2022/04/29 05:00:18;;;;;;;24.58;2.55;;;;;;;21.12;49.26;100618.66;7309724;19;129439;-39
2022/04/29 05:02:43;;;;;;;23.23;2.70;;;;;;;21.17;48.83;100626.19;7305674;19;129748;-42
2022/04/29 05:05:09;;;;;;;19.92;1.92;;;;;;;21.20;49.65;100624.19;7311900;19;129258;-34
2022/04/29 05:07:34;;;;;;;26.92;2.92;;;;;;;21.22;49.60;100619.66;7308232;19;129085;-32
2022/04/29 05:10:00;;;;;;;26.05;2.75;;;;;;;21.22;49.55;100635.34;7310760;19;129273;-34
2022/04/29 05:12:25;;;;;;;47.47;4.50;;;;;;;21.24;49.87;100625.59;7305406;19;154088;-42
2022/04/29 05:14:50;;;;;;;28.88;3.03;;;;;;;21.14;49.83;100616.75;7309264;19;130584;-34
2022/04/29 05:17:16;;;;;;;15.57;1.77;;;;;;;21.26;50.13;100628.94;7308473;19;145006;-42
2022/04/29 05:19:41;;;;;;;21.85;2.42;;;;;;;21.28;50.06;100621.81;7307385;19;129252;-34
2022/04/29 05:22:07;;;;;;;16.95;1.98;;;;;;;21.27;50.16;100625.38;7308875;19;129124;-34
2022/04/29 05:24:32;;;;;;;17.42;1.83;;;;;;;21.25;49.97;100626.44;7309837;19;128906;-36
2022/04/29 05:26:57;;;;;;;28.87;3.27;;;;;;;21.24;50.17;100630.84;7308010;19;158160;-36
2022/04/29 05:29:22;;;;;;;38.03;3.67;;;;;;;20.92;47.49;100628.84;7307940;19;142895;-34
2022/04/29 05:31:48;;;;;;;29.00;3.03;;;;;;;20.84;47.48;100626.78;7307942;19;155182;-36
2022/04/29 05:34:14;;;;;;;5.95;1.02;;;;;;;20.73;47.18;100613.66;7310580;19;129001;-39
2022/04/29 05:36:39;;;;;;;22.40;2.30;;;;;;;20.82;46.60;100625.22;7309897;19;129318;-35
2022/04/29 05:44:34;;;;;;;22.60;2.33;;;;;;;20.88;46.48;100633.47;7310411;19;129024;-40
2022/04/29 05:46:59;;;;;;;29.27;3.05;;;;;;;20.84;45.89;100637.22;7309722;19;130164;-39
2022/04/29 05:49:25;;;;;;;30.55;3.05;;;;;;;20.92;46.32;100634.09;7308267;19;154086;-41
2022/04/29 05:51:50;;;;;;;29.95;3.28;;;;;;;20.87;46.61;100638.81;7308145;19;143152;-36
2022/04/29 05:54:15;;;;;;;19.15;2.00;;;;;;;20.93;46.86;100636.59;7308449;19;155747;-31
2022/04/29 05:56:40;;;;;;;19.08;2.00;;;;;;;21.06;48.31;100637.41;7312891;19;158586;-33
2022/04/29 05:59:06;;;;;;;7.53;1.13;;;;;;;21.12;48.71;100639.56;7314362;19;159214;-39
2022/04/29 06:01:31;;;;;;;15.98;1.58;;;;;;;21.16;49.40;100638.41;7313918;19;154407;-39
2022/04/29 06:03:56;;;;;;;29.42;2.83;;;;;;;21.19;49.68;100640.78;7315223;19;154068;-36
2022/04/29 06:06:21;;;;;;;21.15;2.40;;;;;;;21.21;49.18;100644.13;7314888;19;159205;-38
2022/04/29 06:08:47;;;;;;;24.98;2.63;;;;;;;21.20;49.65;100645.09;7315463;19;158370;-35
2022/04/29 06:11:12;;;;;;;16.58;1.80;;;;;;;21.20;49.13;100639.88;7315830;19;149224;-40
2022/04/29 06:13:38;;;;;;;7.95;1.08;;;;;;;21.22;49.87;100644.97;7315475;19;129964;-36
2022/04/29 06:16:05;;;;;;;40.83;4.00;;;;;;;21.22;50.06;100643.19;7316326;19;130874;-38
2022/04/29 06:18:32;;;;;;;18.98;2.08;;;;;;;21.22;50.13;100637.94;7316814;19;130363;-35
2022/04/29 06:20:57;;;;;;;28.40;3.03;;;;;;;21.25;50.16;100648.22;7315271;19;129886;-34
2022/04/29 06:23:23;;;;;;;7.78;1.27;;;;;;;20.90;47.85;100622.91;7315394;19;129638;-33
2022/04/29 06:25:48;;;;;;;25.30;2.65;;;;;;;20.82;47.67;100649.59;7314805;19;158519;-38
2022/04/29 06:28:14;;;;;;;15.30;1.65;;;;;;;20.85;47.18;100649.38;7315126;19;158391;-42
2022/04/29 06:30:40;;;;;;;17.13;1.92;;;;;;;20.82;46.32;100644.38;7316581;19;129347;-44
2022/04/29 06:33:05;;;;;;;7.95;1.30;;;;;;;20.84;46.79;100641.66;7314724;19;129042;-42
2022/04/29 06:35:30;;;;;;;31.60;3.40;;;;;;;20.88;47.27;100643.91;7313391;19;158488;-42
2022/04/29 06:37:56;;;;;;;28.42;2.92;;;;;;;20.86;45.92;100645.81;7316605;19;130306;-39
2022/04/29 06:40:21;;;;;;;37.20;3.88;;;;;;;20.86;46.31;100640.56;7314706;19;129089;-43
2022/04/29 06:42:47;;;;;;;18.70;1.77;;;;;;;20.94;46.09;100634.81;7312945;19;154224;-40
2022/04/29 06:45:13;;;;;;;17.63;1.87;;;;;;;20.91;45.88;100643.69;7314914;19;129901;-39
2022/04/29 06:47:39;;;;;;;17.90;1.75;;;;;;;21.08;48.26;100645.97;7315775;19;129506;-39
2022/04/29 06:50:05;;;;;;;17.13;1.77;;;;;;;21.10;49.23;100644.09;7315611;19;128946;-40
2022/04/29 06:52:30;;;;;;;24.33;2.60;;;;;;;21.15;49.30;100644.59;7313532;19;128941;-36
2022/04/29 06:54:56;;;;;;;29.97;3.27;;;;;;;21.16;49.65;100638.41;7313661;19;158380;-38
2022/04/29 06:57:21;;;;;;;19.47;2.17;;;;;;;21.20;49.17;100645.09;7313635;19;157495;-37
2022/04/29 06:59:47;;;;;;;48.47;4.90;;;;;;;21.19;49.89;100643.41;7313522;19;128871;-36
2022/04/29 07:02:12;;;;;;;133.32;13.57;;;;;;;21.21;49.12;100646.75;7287314;19;129871;-41
2022/04/29 07:04:38;;;;;;;15.00;1.73;;;;;;;21.23;49.90;100644.88;7314487;19;159306;-35
2022/04/29 07:07:05;;;;;;;22.08;2.25;;;;;;;21.22;50.04;100645.78;7309874;19;131098;-36
2022/04/29 07:09:30;;;;;;;;;;;;;;;21.32;50.11;100644.19;7316298;19;129324;-34
2022/04/29 07:11:56;;;;;;;23.80;2.63;;;;;;;21.24;49.74;100651.75;7311466;19;129284;-39
2022/04/29 07:14:22;;;;;;;22.20;2.30;;;;;;;21.26;50.47;100655.09;7313732;19;130292;-36
2022/04/29 07:16:48;;;;;;;26.30;2.67;;;;;;;20.87;47.58;100650.09;7314250;19;129598;-37
2022/04/29 07:19:13;;;;;;;17.55;1.88;;;;;;;20.72;47.19;100653.81;7314914;19;130211;-37
2022/04/29 07:21:39;;;;;;;15.45;1.75;;;;;;;20.80;46.79;100651.47;7314228;19;129135;-38
2022/04/29 07:24:04;;;;;;;18.10;1.88;;;;;;;20.88;46.66;100649.16;7314379;19;159083;-40
2022/04/29 07:26:30;;;;;;;16.27;1.73;;;;;;;20.89;46.18;100644.78;7314181;19;129408;-41
2022/04/29 07:28:55;;;;;;;24.45;2.47;;;;;;;20.88;46.16;100643.91;7313742;19;147719;-38
2022/04/29 07:31:20;;;;;;;22.88;2.38;;;;;;;20.84;46.75;100650.31;7312972;19;154245;-37
2022/04/29 07:33:45;;;;;;;20.58;2.13;;;;;;;20.73;46.13;100624.94;7314559;19;130013;-36
2022/04/29 07:41:46;;;;;;;20.33;1.88;;;;;;;20.84;46.59;100641.66;7313627;19;129118;-32
2022/04/29 07:44:15;;;;;;;19.23;1.85;;;;;;;21.01;47.83;100644.75;7314263;19;129528;-34
2022/04/29 07:46:43;;;;;;;30.38;3.08;;;;;;;21.04;49.06;100643.69;7313235;19;129872;-32
2022/04/29 07:49:09;;;;;;;16.88;1.60;;;;;;;21.06;49.45;100637.41;7314746;19;129207;-40
2022/04/29 07:51:34;;;;;;;22.90;2.25;;;;;;;21.14;49.70;100642.91;7313222;19;129000;-39
2022/04/29 07:54:00;;;;;;;25.08;2.35;;;;;;;21.16;49.23;100643.63;7314285;19;129276;-36
2022/04/29 07:56:25;;;;;;;32.40;3.13;;;;;;;21.20;49.94;100645.09;7312546;19;129089;-36
2022/04/29 07:58:50;;;;;;;24.10;2.53;;;;;;;21.22;49.56;100644.97;7312692;19;154767;-40
2022/04/29 08:01:16;;;;;;;24.65;2.45;;;;;;;21.15;49.38;100623.69;7309480;19;154878;-37
2022/04/29 08:03:42;;;;;;;14.15;1.48;;;;;;;21.22;49.86;100643.19;7313280;19;130294;-38
2022/04/29 08:06:08;;;;;;;17.75;1.70;;;;;;;21.23;50.51;100644.03;7313758;19;131288;-38
2022/04/29 08:08:34;;;;;;;24.38;2.42;;;;;;;21.26;49.91;100639.41;7313475;19;130528;-43
2022/04/29 08:10:59;;;;;;;22.23;2.27;;;;;;;21.19;48.70;100627.72;7312734;19;128910;-36
2022/04/29 08:13:26;;;;;;;29.17;2.78;;;;;;;20.82;47.02;100639.16;7308851;19;158310;-38
2022/04/29 08:15:51;;;;;;;23.77;2.37;;;;;;;20.81;47.46;100637.44;7314064;19;130304;-35
2022/04/29 08:18:19;;;;;;;14.77;1.83;;;;;;;20.80;47.16;100632.34;7310205;19;129589;-34
2022/04/29 08:20:44;;;;;;;7.47;1.08;;;;;;;20.83;46.37;100635.56;7310911;19;128995;-35
2022/04/29 08:23:10;;;;;;;17.30;1.60;;;;;;;20.83;46.67;100632.13;7311483;19;129607;-35
2022/04/29 08:25:36;;;;;;;19.08;1.65;;;;;;;20.83;46.33;100635.56;7310993;19;158250;-33
2022/04/29 08:28:03;;;;;;;16.02;1.58;;;;;;;20.79;46.49;100623.69;7312441;19;129011;-38
2022/04/29 08:30:30;;;;;;;19.88;2.08;;;;;;;20.86;46.27;100630.13;7312917;19;129199;-34
2022/04/29 08:32:57;;;;;;;23.42;2.35;;;;;;;20.86;45.91;100624.91;7309914;19;129664;-33
2022/04/29 08:35:22;;;;;;;35.65;3.67;;;;;;;20.90;46.48;100634.19;7311740;19;131380;-36
2022/04/29 08:37:49;;;;;;;26.60;2.60;;;;;;;21.13;46.90;100637.78;7312700;19;128974;-35
2022/04/29 08:40:14;;;;;;;29.95;3.10;;;;;;;21.08;48.39;100634.66;7310680;19;129319;-36
2022/04/29 08:42:41;;;;;;;19.33;2.03;;;;;;;21.11;48.75;100635.28;7309542;19;158912;-39
2022/04/29 08:45:11;;;;;;;;;;;;;;;21.17;49.63;100634.84;7313718;19;129739;-38
2022/04/29 08:47:39;;;;;;;15.98;1.52;;;;;;;21.16;49.21;100635.78;7312528;19;130462;-37
2022/04/29 08:50:18;;;;;;;23.13;2.45;;;;;;;21.17;49.80;100624.38;7310176;19;129589;-37
2022/04/29 08:52:45;;;;;;;17.25;1.75;;;;;;;21.20;49.35;100629.41;7309304;19;130206;-40
2022/04/29 09:00:41;;;;;;;17.98;1.85;;;;;;;21.14;49.82;100608.91;7311797;19;129863;-36
2022/04/29 09:03:20;;;;;;;19.13;1.83;;;;;;;21.25;49.89;100621.22;7309843;19;129184;-40
2022/04/29 09:05:47;;;;;;;21.85;2.30;;;;;;;21.25;50.58;100615.97;7312167;19;129622;-33
2022/04/29 09:08:14;;;;;;;19.10;1.90;;;;;;;20.82;47.41;100618.25;7312180;19;129395;-33
2022/04/29 09:10:57;;;;;;;15.77;1.67;;;;;;;20.74;47.10;100610.13;7311569;19;129186;-38
2022/04/29 09:13:24;;;;;;;18.17;1.80;;;;;;;20.77;47.05;100615.94;7308535;19;130214;-36
2022/04/29 09:15:58;;;;;;;14.90;1.83;;;;;;;20.67;46.46;100603.66;7311780;19;129403;-43
2022/04/29 09:18:28;;;;;;;24.17;2.30;;;;;;;20.79;46.16;100613.22;7311465;19;128980;-39
2022/04/29 09:20:53;;;;;;;22.05;2.05;;;;;;;20.80;46.58;100617.50;7310163;19;128840;-45
2022/04/29 09:23:26;;;;;;;20.45;2.10;;;;;;;20.83;46.27;100619.03;7302037;19;129476;-40
2022/04/29 09:25:51;;;;;;;21.65;2.10;;;;;;;20.81;46.55;100615.72;7311113;19;131006;-41
2022/04/29 09:28:17;;;;;;;15.90;1.63;;;;;;;20.87;45.89;100610.91;7308871;19;128757;-42
2022/04/29 09:30:42;;;;;;;20.50;2.22;;;;;;;20.87;46.13;100603.06;7315028;19;152813;-42
2022/04/29 09:33:21;;;;;;;11.43;1.17;;;;;;;20.88;45.98;100602.09;7317122;19;129022;-45
2022/04/29 09:35:49;;;;;;;30.45;2.88;;;;;;;21.07;47.10;100607.72;7316103;19;129322;-45
2022/04/29 09:41:00;;;;;;;24.77;2.65;;;;;;;21.08;48.62;100605.91;7315715;19;128871;-42
2022/04/29 09:43:36;;;;;;;32.28;3.10;;;;;;;21.14;49.45;100605.47;7315409;19;129608;-41
2022/04/29 09:46:14;;;;;;;19.55;1.95;;;;;;;21.16;49.44;100601.78;7317055;19;129395;-36
2022/04/29 09:48:58;;;;;;;17.95;1.67;;;;;;;21.18;49.41;100594.69;7317115;19;154840;-41
2022/04/29 09:51:46;;;;;;;26.25;2.58;;;;;;;21.22;50.00;100590.88;7316311;19;128991;-32
2022/04/29 09:54:15;;;;;;;14.35;1.52;;;;;;;21.20;49.67;100591.94;7317275;19;129211;-34
2022/04/29 09:56:40;;;;;;;19.05;1.73;;;;;;;21.21;49.84;100594.44;7317591;19;130032;-36
2022/04/29 09:59:07;;;;;;;10.55;1.13;;;;;;;21.19;50.40;100590.28;7317293;19;128997;-35
2022/04/29 10:01:32;;;;;;;21.85;2.00;;;;;;;21.23;49.90;100587.34;7313654;19;128967;-41
2022/04/29 10:04:00;;;;;;;23.75;2.53;;;;;;;21.22;49.82;100585.66;7315573;19;130621;-38
2022/04/29 10:06:28;;;;;;;18.23;1.88;;;;;;;20.97;47.23;100587.53;7316680;19;129740;-33
2022/04/29 10:08:56;;;;;;;27.90;2.80;;;;;;;20.75;47.22;100588.25;7316846;19;129066;-40
2022/04/29 10:11:22;;;;;;;24.83;2.20;;;;;;;20.67;46.54;100567.06;7316361;19;129171;-36
2022/04/29 10:13:49;;;;;;;20.27;1.93;;;;;;;20.87;46.65;100579.53;7317969;19;129235;-37
2022/04/29 10:16:18;;;;;;;17.40;1.60;;;;;;;20.79;46.17;100576.66;7316636;19;129320;-31
2022/04/29 10:21:51;;;;;;;94.05;9.02;;;;;;;20.81;46.32;100572.13;7309540;19;129218;-37
2022/04/29 10:24:17;;;;;;;19.27;1.93;;;;;;;20.87;46.08;100563.84;7313652;19;129381;-32
2022/04/29 10:26:42;;;;;;;16.08;1.65;;;;;;;20.84;46.26;100555.41;7313676;19;129870;-42
2022/04/29 10:29:09;;;;;;;24.50;2.22;;;;;;;20.96;46.15;100554.50;7311266;19;130114;-40
2022/04/29 10:31:34;;;;;;;27.33;2.50;;;;;;;21.00;46.73;100551.59;7313025;19;129008;-37
2022/04/29 10:34:28;;;;;;;22.50;2.25;;;;;;;21.07;48.09;100549.34;7313666;19;142410;-33
2022/04/29 10:36:54;;;;;;;23.33;2.35;;;;;;;21.08;49.03;100551.84;7315694;19;130041;-38
2022/04/29 10:39:21;;;;;;;22.58;2.35;;;;;;;21.10;49.40;100542.13;7315486;19;128901;-41
2022/04/29 10:42:00;;;;;;;31.48;3.05;;;;;;;21.14;49.47;100540.94;7310967;19;129581;-34
2022/04/29 10:44:25;;;;;;;19.13;1.98;;;;;;;21.14;49.54;100535.69;7316884;19;130202;-41
2022/04/29 10:46:50;;;;;;;29.65;2.83;;;;;;;21.19;50.12;100538.00;7309647;19;154477;-36
2022/04/29 10:49:21;;;;;;;16.08;1.75;;;;;;;21.18;50.00;100528.47;7315732;19;150145;-38
2022/04/29 10:51:50;;;;;;;22.90;2.22;;;;;;;21.18;49.89;100524.06;7313901;19;128894;-39
2022/04/29 10:54:40;;;;;;;17.20;1.67;;;;;;;21.18;50.59;100521.47;7315657;19;129329;-35
2022/04/29 10:57:07;;;;;;;13.70;1.40;;;;;;;21.22;49.84;100533.34;7314612;19;131001;-36
2022/04/29 10:59:52;;;;;;;;;;;;;;;21.29;50.45;100524.09;7317744;19;128907;-37
2022/04/29 11:02:31;;;;;;;26.55;2.58;;;;;;;20.87;47.34;100527.25;7314299;19;129020;-38
2022/04/29 11:04:58;;;;;;;24.85;2.45;;;;;;;20.71;47.66;100500.56;7314256;19;130261;-34
2022/04/29 11:07:33;;;;;;;;;;;;;;;20.81;47.05;100514.63;7315976;19;129693;-37
2022/04/29 11:09:58;;;;;;;29.67;3.00;;;;;;;20.82;47.02;100511.09;7314303;19;128784;-34
2022/04/29 11:12:31;;;;;;;20.38;1.88;;;;;;;20.82;46.17;100513.69;7311936;19;152824;-36
2022/04/29 11:15:45;;;;;;;24.52;2.45;;;;;;;20.68;46.54;100487.72;7313836;19;129641;-35
2022/04/29 11:18:14;;;;;;;24.17;2.13;;;;;;;20.84;46.39;100510.97;7311223;19;130916;-30
2022/04/29 11:20:42;;;;;;;16.73;1.60;;;;;;;20.87;46.68;100510.72;7312130;19;140262;-42
2022/04/29 11:25:59;;;;;;;22.02;2.15;;;;;;;20.93;46.23;100505.88;7314236;19;129238;-40
2022/04/29 11:28:26;;;;;;;16.63;1.63;;;;;;;20.99;47.05;100500.22;7315333;19;129935;-36
2022/04/29 11:31:05;;;;;;;22.70;2.22;;;;;;;21.02;48.57;100494.78;7314308;19;128991;-42
2022/04/29 11:33:31;;;;;;;22.35;2.35;;;;;;;21.08;49.09;100507.41;7311964;19;129148;-35
2022/04/29 11:36:02;;;;;;;20.00;2.05;;;;;;;21.10;49.82;100492.44;7312838;19;158279;-35
2022/04/29 11:38:38;;;;;;;21.05;2.03;;;;;;;21.13;49.42;100489.59;7315067;19;130371;-38